Time;durP1;ratioP1;P1;durP2;ratioP2;P2;SDS_P1;SDS_P2;PMS_P1;PMS_P2;Temp;Humidity;BMP_temperature;BMP_pressure;BME280_temperature;BME280_humidity;BME280_pressure;Samples;Min_cycle;Max_cycle;Signal;HPM_P1;HPM_P2
2023/05/03 00:01:23;;;;;;;7.68;3.30;;;3.90;99.90;;;;;;5036042;28;20041;-79
2023/05/03 00:03:52;;;;;;;7.57;3.05;;;3.90;99.90;;;;;;5043177;28;20561;-79
2023/05/03 00:06:18;;;;;;;3.70;2.85;;;3.80;99.90;;;;;;5042264;28;20056;-78
2023/05/03 00:08:44;;;;;;;6.03;3.30;;;3.80;99.90;;;;;;5026497;28;20140;-78
2023/05/03 00:11:10;;;;;;;5.05;2.80;;;3.80;99.90;;;;;;5031883;28;20048;-78
2023/05/03 00:13:36;;;;;;;5.10;2.92;;;3.70;99.90;;;;;;5047935;28;20132;-79
2023/05/03 00:16:02;;;;;;;4.40;2.95;;;3.70;99.90;;;;;;5028609;28;20037;-78
2023/05/03 00:18:29;;;;;;;4.30;2.90;;;3.60;99.90;;;;;;5048286;28;20059;-78
2023/05/03 00:20:55;;;;;;;7.50;3.30;;;3.60;99.90;;;;;;5031892;28;20051;-78
2023/05/03 00:23:22;;;;;;;4.13;2.78;;;3.60;99.90;;;;;;5043314;28;20045;-77
2023/05/03 00:25:55;;;;;;;5.00;3.00;;;4.10;99.90;;;;;;5040102;28;20128;-78
2023/05/03 00:28:22;;;;;;;6.65;3.35;;;3.60;99.90;;;;;;5048030;28;20052;-78
2023/05/03 00:30:48;;;;;;;6.20;3.30;;;3.50;99.90;;;;;;5049212;28;20045;-79
2023/05/03 00:33:15;;;;;;;4.85;3.20;;;3.50;99.90;;;;;;5031103;28;20172;-78
2023/05/03 00:35:41;;;;;;;7.55;2.92;;;3.50;99.90;;;;;;5030731;28;20049;-78
2023/05/03 00:38:06;;;;;;;6.57;2.88;;;3.50;99.90;;;;;;5046721;28;20049;-78
2023/05/03 00:40:32;;;;;;;5.60;3.20;;;3.50;99.90;;;;;;5048426;28;20468;-78
2023/05/03 00:42:58;;;;;;;6.13;3.10;;;3.50;99.90;;;;;;5030706;28;20055;-79
2023/05/03 00:45:24;;;;;;;4.90;3.28;;;3.60;99.90;;;;;;5048024;28;20043;-78
2023/05/03 00:47:50;;;;;;;7.90;3.20;;;3.60;99.90;;;;;;5032195;28;20047;-78
2023/05/03 00:50:15;;;;;;;4.05;3.13;;;3.70;99.90;;;;;;5031208;28;20127;-78
2023/05/03 00:52:42;;;;;;;6.05;2.75;;;3.70;99.90;;;;;;5049505;28;20155;-78
2023/05/03 00:55:09;;;;;;;4.55;3.13;;;3.70;99.90;;;;;;5030105;28;20606;-78
2023/05/03 00:57:34;;;;;;;4.07;3.15;;;3.80;99.90;;;;;;5049001;28;20048;-78
2023/05/03 01:00:00;;;;;;;4.05;2.75;;;3.80;99.90;;;;;;5032608;28;20045;-78
2023/05/03 01:02:27;;;;;;;5.13;3.22;;;3.90;99.90;;;;;;5049311;28;20041;-78
2023/05/03 01:04:54;;;;;;;6.55;5.05;;;3.90;99.90;;;;;;5045951;28;20037;-78
2023/05/03 01:07:31;;;;;;;6.45;4.60;;;4.00;99.90;;;;;;5043480;28;21281;-78
2023/05/03 01:10:37;;;;;;;4.68;3.83;;;4.00;99.90;;;;;;5047845;28;20048;-78
2023/05/03 01:13:32;;;;;;;3.78;3.20;;;4.10;99.90;;;;;;5039545;28;20601;-79
2023/05/03 01:16:05;;;;;;;6.32;4.35;;;4.10;99.90;;;;;;5045314;28;20053;-79
2023/05/03 01:18:38;;;;;;;5.22;3.72;;;4.20;99.90;;;;;;5030877;28;20135;-79
2023/05/03 01:21:05;;;;;;;5.00;3.50;;;4.80;99.90;;;;;;5050774;28;20125;-79
2023/05/03 01:23:42;;;;;;;6.60;4.07;;;4.30;99.90;;;;;;5047413;28;20123;-79
2023/05/03 01:26:24;;;;;;;5.97;3.90;;;4.30;99.90;;;;;;5031583;28;20518;-78
2023/05/03 01:28:50;;;;;;;;;;;4.40;99.90;;;;;;5048925;28;20053;-78
2023/05/03 01:31:22;;;;;;;4.32;3.08;;;4.40;99.90;;;;;;5030675;28;19931;-79
2023/05/03 01:34:20;;;;;;;5.95;4.55;;;4.40;99.90;;;;;;5049496;28;20045;-79
2023/05/03 01:36:47;;;;;;;6.18;3.72;;;4.50;99.90;;;;;;5008994;28;20056;-79
2023/05/03 01:39:21;;;;;;;6.95;3.78;;;4.50;99.90;;;;;;5049206;28;20520;-79
2023/05/03 01:41:50;;;;;;;3.85;3.42;;;4.60;99.90;;;;;;5048917;28;20060;-79
2023/05/03 01:44:16;;;;;;;6.22;3.90;;;4.60;99.90;;;;;;5031367;28;20056;-79
2023/05/03 01:46:43;;;;;;;6.70;3.50;;;4.60;99.90;;;;;;5047518;28;20133;-79
2023/05/03 01:49:09;;;;;;;5.57;3.80;;;4.70;99.90;;;;;;5048998;28;20041;-79
2023/05/03 01:51:35;;;;;;;5.57;3.65;;;4.70;99.90;;;;;;5043521;28;20049;-79
2023/05/03 01:54:00;;;;;;;4.88;3.47;;;4.80;99.90;;;;;;5046848;28;20051;-79
2023/05/03 01:56:26;;;;;;;4.03;3.42;;;4.80;99.90;;;;;;5047325;28;20127;-79
2023/05/03 01:58:51;;;;;;;5.22;3.95;;;4.80;99.90;;;;;;5046794;28;20053;-78
2023/05/03 02:01:17;;;;;;;4.07;3.30;;;4.80;99.90;;;;;;5014002;28;20048;-78
2023/05/03 02:03:42;;;;;;;4.15;3.55;;;4.80;99.90;;;;;;5047483;28;20136;-79
2023/05/03 02:06:08;;;;;;;4.72;3.25;;;4.80;99.90;;;;;;5047782;28;20037;-78
2023/05/03 02:08:33;;;;;;;4.90;4.10;;;4.80;99.90;;;;;;5045302;28;20517;-78
2023/05/03 02:10:59;;;;;;;4.15;3.75;;;5.40;99.90;;;;;;5048720;28;20140;-78
2023/05/03 02:13:25;;;;;;;5.78;4.38;;;4.80;99.90;;;;;;5042240;28;20403;-78
2023/05/03 02:15:50;;;;;;;5.32;4.15;;;4.80;99.90;;;;;;5036607;28;20482;-78
2023/05/03 02:18:17;;;;;;;6.13;3.58;;;4.80;99.90;;;;;;5029414;28;20057;-79
2023/05/03 02:20:46;;;;;;;6.53;3.95;;;4.80;99.90;;;;;;5048293;28;20049;-79
2023/05/03 02:23:12;;;;;;;7.03;4.25;;;4.70;99.90;;;;;;5041004;28;20045;-78
2023/05/03 02:25:38;;;;;;;6.78;4.13;;;4.70;99.90;;;;;;5028119;28;20511;-79
2023/05/03 02:28:04;;;;;;;4.20;3.80;;;4.70;99.90;;;;;;5044747;28;20068;-78
2023/05/03 02:30:29;;;;;;;4.68;3.38;;;4.60;99.90;;;;;;5041993;28;20041;-78
2023/05/03 02:32:55;;;;;;;5.90;3.70;;;4.50;99.90;;;;;;5048277;28;20045;-78
2023/05/03 02:35:21;;;;;;;4.63;3.33;;;4.50;99.90;;;;;;5027987;28;20432;-79
2023/05/03 02:37:47;;;;;;;5.47;3.75;;;4.40;99.90;;;;;;5048016;28;20066;-77
2023/05/03 02:40:12;;;;;;;4.43;3.08;;;4.30;99.90;;;;;;5009784;28;20066;-77
2023/05/03 02:42:39;;;;;;;5.53;3.47;;;4.30;99.90;;;;;;5015697;28;20095;-78
2023/05/03 02:45:05;;;;;;;7.30;3.53;;;4.20;99.90;;;;;;5028498;28;20892;-78
2023/05/03 02:47:31;;;;;;;5.60;3.78;;;4.10;99.90;;;;;;5046190;28;20102;-78
2023/05/03 02:49:56;;;;;;;4.85;4.30;;;4.00;99.90;;;;;;5032904;28;20060;-78
2023/05/03 02:52:22;;;;;;;4.40;3.60;;;4.50;99.90;;;;;;5029603;28;20040;-79
2023/05/03 02:54:50;;;;;;;5.88;3.83;;;3.90;99.90;;;;;;5027410;28;20045;-79
2023/05/03 02:57:16;;;;;;;8.20;3.95;;;3.90;99.90;;;;;;5028044;28;20435;-79
2023/05/03 02:59:42;;;;;;;5.55;4.05;;;3.80;99.90;;;;;;5047203;28;20045;-79
2023/05/03 03:02:07;;;;;;;4.65;3.58;;;3.80;99.90;;;;;;5028415;28;20475;-79
2023/05/03 03:04:33;;;;;;;6.32;3.75;;;3.70;99.90;;;;;;5047266;28;20456;-77
2023/05/03 03:06:58;;;;;;;4.40;3.60;;;3.70;99.90;;;;;;5044473;28;20056;-79
2023/05/03 03:09:24;;;;;;;5.70;4.13;;;3.70;99.90;;;;;;5029437;28;20053;-78
2023/05/03 03:11:51;;;;;;;5.60;3.60;;;3.60;99.90;;;;;;5047199;28;20049;-78
2023/05/03 03:14:17;;;;;;;5.38;4.00;;;3.60;99.90;;;;;;5026858;28;20049;-78
2023/05/03 03:16:44;;;;;;;6.63;3.85;;;3.60;99.90;;;;;;5047576;28;20045;-79
2023/05/03 03:19:10;;;;;;;5.88;4.20;;;3.60;99.90;;;;;;5045131;28;20063;-78
2023/05/03 03:21:36;;;;;;;6.93;3.70;;;3.50;99.90;;;;;;5012481;28;20049;-79
2023/05/03 03:24:02;;;;;;;4.35;3.33;;;3.50;99.90;;;;;;5045750;28;20048;-78
2023/05/03 03:26:28;;;;;;;6.22;3.70;;;3.40;99.90;;;;;;5046830;28;20053;-78
2023/05/03 03:28:54;;;;;;;4.43;3.28;;;3.40;99.90;;;;;;5047239;28;20436;-78
2023/05/03 03:31:21;;;;;;;8.30;3.60;;;3.30;99.90;;;;;;5046864;28;20068;-79
2023/05/03 03:33:48;;;;;;;4.93;3.28;;;3.30;99.90;;;;;;5029094;28;20055;-79
2023/05/03 03:36:13;;;;;;;4.85;3.75;;;3.30;99.90;;;;;;5046740;28;20530;-79
2023/05/03 03:38:40;;;;;;;3.58;3.17;;;3.20;99.90;;;;;;5027646;28;20049;-79
2023/05/03 03:41:06;;;;;;;4.20;3.80;;;3.20;99.90;;;;;;5028208;28;20057;-79
2023/05/03 03:43:32;;;;;;;6.60;3.50;;;3.10;99.90;;;;;;5046712;28;20760;-79
2023/05/03 03:45:57;;;;;;;6.32;3.65;;;3.10;99.90;;;;;;5045310;28;20131;-78
2023/05/03 03:48:23;;;;;;;5.18;3.28;;;3.10;99.90;;;;;;5028503;28;20069;-78
2023/05/03 03:50:49;;;;;;;6.28;3.25;;;3.00;99.90;;;;;;5047036;28;20099;-79
2023/05/03 03:53:15;;;;;;;3.78;3.20;;;3.00;99.90;;;;;;5045928;28;20072;-78
2023/05/03 03:55:41;;;;;;;5.80;3.40;;;2.90;99.90;;;;;;5035110;28;20091;-78
2023/05/03 03:58:06;;;;;;;5.93;3.50;;;2.90;99.90;;;;;;5028232;28;20102;-79
2023/05/03 04:00:33;;;;;;;6.32;3.80;;;2.90;99.90;;;;;;5028423;28;20123;-79
2023/05/03 04:02:59;;;;;;;4.50;3.38;;;2.80;99.90;;;;;;5045968;28;20077;-78
2023/05/03 04:05:24;;;;;;;6.10;4.00;;;2.80;99.90;;;;;;5045548;28;20118;-78
2023/05/03 04:07:50;;;;;;;4.82;3.35;;;2.80;99.90;;;;;;5043385;28;20040;-78
2023/05/03 04:10:16;;;;;;;5.20;3.30;;;2.80;99.90;;;;;;5025131;28;20042;-79
2023/05/03 04:12:41;;;;;;;5.85;3.55;;;2.70;99.90;;;;;;5008997;28;20037;-79
2023/05/03 04:15:07;;;;;;;5.82;3.47;;;2.70;99.90;;;;;;5044562;28;20447;-79
2023/05/03 04:17:33;;;;;;;7.00;3.15;;;2.70;99.90;;;;;;5043435;28;20549;-79
2023/05/03 04:20:03;;;;;;;4.10;3.13;;;2.70;99.90;;;;;;5027070;28;20045;-79
2023/05/03 04:22:31;;;;;;;7.10;3.88;;;2.70;99.90;;;;;;5038439;28;20046;-79
2023/05/03 04:24:56;;;;;;;4.85;3.55;;;2.70;99.90;;;;;;5043068;28;20510;-78
2023/05/03 04:27:23;;;;;;;5.05;3.50;;;2.70;99.90;;;;;;5028480;28;20095;-78
2023/05/03 04:29:49;;;;;;;6.57;3.65;;;2.80;99.90;;;;;;5044955;28;20407;-78
2023/05/03 04:32:15;;;;;;;5.43;3.60;;;2.80;99.90;;;;;;5026403;28;20060;-78
2023/05/03 04:34:42;;;;;;;10.23;4.45;;;2.90;99.90;;;;;;5046305;28;20142;-78
2023/05/03 04:37:08;;;;;;;6.47;3.47;;;2.90;99.90;;;;;;5042068;28;20125;-78
2023/05/03 04:39:34;;;;;;;4.15;3.50;;;3.00;99.90;;;;;;5038299;28;20415;-79
2023/05/03 04:42:00;;;;;;;5.85;3.97;;;3.70;99.90;;;;;;5033571;28;20061;-78
2023/05/03 04:44:26;;;;;;;4.90;3.88;;;3.10;99.90;;;;;;5045890;28;20222;-78
2023/05/03 04:46:52;;;;;;;6.15;4.50;;;3.20;99.90;;;;;;5045177;28;20123;-78
2023/05/03 04:49:17;;;;;;;4.90;4.00;;;3.30;99.90;;;;;;5008955;28;20502;-78
2023/05/03 04:51:43;;;;;;;8.45;4.18;;;3.40;99.90;;;;;;5024845;28;20049;-78
2023/05/03 04:54:09;;;;;;;7.20;4.45;;;3.40;99.90;;;;;;5031212;28;20063;-78
2023/05/03 04:56:35;;;;;;;3.97;3.50;;;3.50;99.90;;;;;;5048683;28;20041;-79
2023/05/03 04:59:01;;;;;;;8.48;4.25;;;3.60;99.90;;;;;;5045254;28;20045;-79
2023/05/03 05:01:27;;;;;;;6.53;4.22;;;3.60;99.90;;;;;;5041363;28;20574;-78
2023/05/03 05:03:53;;;;;;;6.63;3.90;;;3.70;99.90;;;;;;5030463;28;20098;-79
2023/05/03 05:06:19;;;;;;;5.88;3.80;;;3.80;99.90;;;;;;5030456;28;20049;-78
2023/05/03 05:08:44;;;;;;;6.15;3.95;;;3.90;99.90;;;;;;5029906;28;20132;-79
2023/05/03 05:11:12;;;;;;;5.28;3.97;;;3.90;99.90;;;;;;5029515;28;20037;-79
2023/05/03 05:13:38;;;;;;;6.18;4.10;;;4.00;99.90;;;;;;5048872;28;20049;-78
2023/05/03 05:16:04;;;;;;;7.45;4.15;;;4.10;99.90;;;;;;5030817;28;20092;-78
2023/05/03 05:18:30;;;;;;;8.10;4.53;;;4.20;99.90;;;;;;5028409;28;20068;-78
2023/05/03 05:20:55;;;;;;;7.35;3.88;;;4.40;99.90;;;;;;5046324;28;20468;-79
2023/05/03 05:23:21;;;;;;;8.23;4.68;;;4.50;99.90;;;;;;5050153;28;20041;-79
2023/05/03 05:25:47;;;;;;;5.55;4.18;;;4.60;99.90;;;;;;5050267;28;20056;-79
2023/05/03 05:28:13;;;;;;;6.13;4.30;;;4.70;99.90;;;;;;5030373;28;20124;-79
2023/05/03 05:30:38;;;;;;;5.78;4.65;;;4.80;99.90;;;;;;5030278;28;20045;-79
2023/05/03 05:33:04;;;;;;;7.53;4.68;;;4.90;99.90;;;;;;5045902;28;20067;-79
2023/05/03 05:35:29;;;;;;;6.00;4.28;;;5.00;99.90;;;;;;5024937;28;20033;-79
2023/05/03 05:37:55;;;;;;;6.72;4.70;;;5.10;99.90;;;;;;5024475;28;20503;-79
2023/05/03 05:40:20;;;;;;;6.35;5.28;;;5.30;99.90;;;;;;5024829;28;20126;-80
2023/05/03 05:42:47;;;;;;;8.40;4.80;;;5.40;99.90;;;;;;5031199;28;20048;-79
2023/05/03 05:45:13;;;;;;;7.07;4.45;;;5.60;99.90;;;;;;5047957;28;20110;-80
2023/05/03 05:47:39;;;;;;;6.00;4.32;;;5.70;99.90;;;;;;5031423;28;20057;-79
2023/05/03 05:50:05;;;;;;;7.93;5.18;;;5.80;99.90;;;;;;5030940;28;20128;-79
2023/05/03 05:52:31;;;;;;;6.13;4.07;;;6.00;99.90;;;;;;5031637;28;20451;-79
2023/05/03 05:54:56;;;;;;;7.95;3.70;;;6.10;99.90;;;;;;5048410;28;20130;-79
2023/05/03 05:57:22;;;;;;;5.95;3.88;;;6.20;99.90;;;;;;5046959;28;20406;-80
2023/05/03 05:59:47;;;;;;;6.32;3.90;;;6.30;99.90;;;;;;5036301;28;20044;-80
2023/05/03 06:02:21;;;;;;;4.95;4.05;;;6.50;99.90;;;;;;5040767;28;20068;-80
2023/05/03 06:04:47;;;;;;;4.32;3.67;;;6.80;99.90;;;;;;5024635;28;20041;-80
2023/05/03 06:07:15;;;;;;;4.65;3.88;;;7.00;99.90;;;;;;5049531;28;20049;-79
2023/05/03 06:09:41;;;;;;;4.22;3.83;;;7.10;99.90;;;;;;5047791;28;20048;-78
2023/05/03 06:12:09;;;;;;;4.43;3.63;;;7.30;99.90;;;;;;5048698;28;20041;-81
2023/05/03 06:14:34;;;;;;;5.68;3.33;;;7.50;99.90;;;;;;5014271;28;20080;-82
2023/05/03 06:17:00;;;;;;;3.53;3.10;;;7.70;99.90;;;;;;5047992;28;20076;-82
2023/05/03 06:19:26;;;;;;;3.00;2.70;;;7.90;99.90;;;;;;5030058;28;20041;-81
2023/05/03 06:21:52;;;;;;;6.00;3.22;;;8.00;99.90;;;;;;5029944;28;20190;-80
2023/05/03 06:24:19;;;;;;;4.70;3.22;;;8.20;99.90;;;;;;5029628;28;20056;-80
2023/05/03 06:26:47;;;;;;;5.53;3.08;;;8.30;99.90;;;;;;5030855;28;20138;-80
2023/05/03 06:29:12;;;;;;;3.97;3.08;;;8.50;99.90;;;;;;5030792;28;20103;-82
2023/05/03 06:31:40;;;;;;;3.25;2.58;;;8.70;99.90;;;;;;5029308;28;20576;-81
2023/05/03 06:34:06;;;;;;;3.55;2.70;;;8.90;99.90;;;;;;5048532;28;20046;-81
2023/05/03 06:36:32;;;;;;;3.88;2.67;;;9.00;99.90;;;;;;5029751;28;20048;-80
2023/05/03 06:38:58;;;;;;;3.03;2.42;;;9.70;99.90;;;;;;5028892;28;20059;-81
2023/05/03 06:41:23;;;;;;;2.88;2.35;;;9.20;99.90;;;;;;5030447;28;20410;-81
2023/05/03 06:43:49;;;;;;;4.03;2.30;;;9.20;99.90;;;;;;5048210;28;20051;-80
2023/05/03 06:46:15;;;;;;;5.43;2.40;;;9.20;99.90;;;;;;5030442;28;20055;-81
2023/05/03 06:48:41;;;;;;;2.72;2.40;;;9.30;99.90;;;;;;5030678;28;20678;-81
2023/05/03 06:51:06;;;;;;;3.80;2.67;;;9.40;99.90;;;;;;5030421;28;20040;-80
2023/05/03 06:53:32;;;;;;;4.45;2.70;;;9.50;99.90;;;;;;5030019;28;20136;-82
2023/05/03 06:55:57;;;;;;;5.10;2.70;;;9.60;99.90;;;;;;5030806;28;20041;-82
2023/05/03 06:58:23;;;;;;;3.75;1.90;;;9.80;99.90;;;;;;5029965;28;20166;-84
2023/05/03 07:00:52;;;;;;;3.10;1.92;;;10.00;99.90;;;;;;5029821;28;20186;-83
2023/05/03 07:03:18;;;;;;;2.50;1.63;;;10.10;99.90;;;;;;5029922;28;20415;-83
2023/05/03 07:05:43;;;;;;;1.80;1.50;;;10.00;99.90;;;;;;5045144;28;20037;-82
2023/05/03 07:08:09;;;;;;;2.85;1.80;;;10.00;99.90;;;;;;5028193;28;20418;-83
2023/05/03 07:10:35;;;;;;;4.70;1.80;;;10.20;99.90;;;;;;5011393;28;20727;-82
2023/05/03 07:13:01;;;;;;;3.35;1.60;;;10.20;99.90;;;;;;5013435;28;20045;-81
2023/05/03 07:15:26;;;;;;;3.63;1.40;;;10.30;99.90;;;;;;5013085;28;20048;-83
2023/05/03 07:17:52;;;;;;;3.40;1.30;;;10.30;99.90;;;;;;5047979;28;20041;-81
2023/05/03 07:20:18;;;;;;;2.63;1.20;;;10.40;99.90;;;;;;5012194;28;20041;-81
2023/05/03 07:22:44;;;;;;;1.80;1.23;;;10.40;99.90;;;;;;5047012;28;20052;-81
2023/05/03 07:25:11;;;;;;;1.90;1.20;;;10.30;99.90;;;;;;5029136;28;20052;-81
2023/05/03 07:27:36;;;;;;;1.45;1.30;;;10.30;99.90;;;;;;5032956;28;20053;-81
2023/05/03 07:30:03;;;;;;;0.95;0.90;;;10.20;99.90;;;;;;5010481;28;20056;-82
2023/05/03 07:32:29;;;;;;;3.55;0.98;;;10.30;99.90;;;;;;5008571;28;20048;-82
2023/05/03 07:34:54;;;;;;;1.83;1.10;;;10.30;99.90;;;;;;5010460;28;20053;-81
2023/05/03 07:37:20;;;;;;;3.55;1.35;;;10.50;99.90;;;;;;5027827;28;20042;-82
2023/05/03 07:39:46;;;;;;;2.25;1.33;;;10.60;99.90;;;;;;5028207;28;20156;-82
2023/05/03 07:42:11;;;;;;;2.15;1.13;;;10.70;99.90;;;;;;5039097;28;20130;-82
2023/05/03 07:44:37;;;;;;;4.10;1.60;;;10.80;99.90;;;;;;5012114;28;20045;-82
2023/05/03 07:47:03;;;;;;;2.20;1.23;;;10.70;99.90;;;;;;5008983;28;20131;-81
2023/05/03 07:49:29;;;;;;;3.17;1.33;;;10.70;99.90;;;;;;5009379;28;20062;-82
2023/05/03 07:51:57;;;;;;;1.67;1.20;;;10.60;99.90;;;;;;5008350;28;20057;-83
2023/05/03 07:54:22;;;;;;;2.33;1.30;;;10.60;99.90;;;;;;5008344;28;20045;-82
2023/05/03 07:56:48;;;;;;;4.00;1.50;;;10.60;99.90;;;;;;5026404;28;20064;-81
2023/05/03 07:59:13;;;;;;;3.17;1.35;;;10.80;99.90;;;;;;5019944;28;20079;-82
2023/05/03 08:01:39;;;;;;;1.40;1.30;;;11.10;99.90;;;;;;5035291;28;20041;-82
2023/05/03 08:04:05;;;;;;;3.85;1.42;;;11.40;99.60;;;;;;5043305;28;20179;-83
2023/05/03 08:06:31;;;;;;;5.35;2.08;;;11.60;98.10;;;;;;5046503;28;20037;-82
2023/05/03 08:08:56;;;;;;;2.50;1.70;;;11.90;96.90;;;;;;5047200;28;20491;-82
2023/05/03 08:11:22;;;;;;;2.20;1.38;;;12.20;96.70;;;;;;5047571;28;20044;-82
2023/05/03 08:13:47;;;;;;;2.45;1.30;;;12.40;95.90;;;;;;5046601;28;20047;-82
2023/05/03 08:16:13;;;;;;;4.32;1.50;;;12.60;94.90;;;;;;5026072;28;20131;-83
2023/05/03 08:18:39;;;;;;;2.53;1.52;;;12.70;93.90;;;;;;5046981;28;20118;-82
2023/05/03 08:21:06;;;;;;;2.55;1.52;;;12.70;92.90;;;;;;5030189;28;20056;-82
2023/05/03 08:23:32;;;;;;;3.08;1.67;;;12.60;93.40;;;;;;5012561;28;20056;-82
2023/05/03 08:25:59;;;;;;;2.53;1.60;;;12.50;93.40;;;;;;5033187;28;20045;-83
2023/05/03 08:28:25;;;;;;;2.38;1.70;;;12.40;93.60;;;;;;5033455;28;20100;-82
2023/05/03 08:30:51;;;;;;;3.10;1.52;;;12.30;93.60;;;;;;5032549;28;20064;-81
2023/05/03 08:33:16;;;;;;;2.05;1.70;;;12.20;93.70;;;;;;5012982;28;20045;-82
2023/05/03 08:35:42;;;;;;;3.47;1.60;;;12.30;93.60;;;;;;5033567;28;20053;-83
2023/05/03 08:38:07;;;;;;;2.58;1.40;;;12.40;93.00;;;;;;5032781;28;20044;-82
2023/05/03 08:40:36;;;;;;;4.00;1.90;;;12.40;92.80;;;;;;5032903;28;20084;-82
2023/05/03 08:43:13;;;;;;;1.90;1.60;;;12.50;92.20;;;;;;5015884;28;20060;-82
2023/05/03 08:45:39;;;;;;;2.92;1.60;;;12.30;86.70;;;;;;5050192;28;20084;-81
2023/05/03 08:48:06;;;;;;;1.60;1.50;;;12.10;91.40;;;;;;5031851;28;20076;-82
2023/05/03 08:50:36;;;;;;;1.95;1.50;;;12.00;91.80;;;;;;5049012;28;20103;-82
2023/05/03 08:53:02;;;;;;;2.42;1.67;;;12.00;91.90;;;;;;5015243;28;20134;-82
2023/05/03 08:55:27;;;;;;;5.15;1.58;;;11.90;92.00;;;;;;5030487;28;20645;-81
2023/05/03 08:57:53;;;;;;;3.35;1.75;;;11.80;92.30;;;;;;5032219;28;20049;-80
2023/05/03 09:00:25;;;;;;;2.33;1.40;;;11.80;92.40;;;;;;5031844;28;20044;-81
2023/05/03 09:02:51;;;;;;;3.38;1.98;;;11.80;92.10;;;;;;5031586;28;20049;-82
2023/05/03 09:05:16;;;;;;;2.22;1.50;;;11.80;92.10;;;;;;5030926;28;20052;-82
2023/05/03 09:08:03;;;;;;;4.13;1.88;;;11.70;91.90;;;;;;5050442;28;20045;-83
2023/05/03 09:10:30;;;;;;;5.72;1.58;;;11.70;90.60;;;;;;5032286;28;20510;-82
2023/05/03 09:13:01;;;;;;;3.53;1.52;;;11.50;91.80;;;;;;5049380;28;20106;-82
2023/05/03 09:15:30;;;;;;;4.10;1.80;;;11.50;91.90;;;;;;5032351;28;20068;-81
2023/05/03 09:18:16;;;;;;;2.67;1.70;;;11.40;91.80;;;;;;5032452;28;20505;-82
2023/05/03 09:20:50;;;;;;;2.03;1.48;;;11.50;90.50;;;;;;5049343;28;20080;-82
2023/05/03 09:23:17;;;;;;;5.07;1.65;;;11.60;92.60;;;;;;5031561;28;20159;-82
2023/05/03 09:25:44;;;;;;;2.72;1.90;;;11.70;92.10;;;;;;5032330;28;20056;-82
2023/05/03 09:28:11;;;;;;;4.03;1.75;;;11.60;91.40;;;;;;5049897;28;20041;-82
2023/05/03 09:30:37;;;;;;;3.05;1.60;;;11.60;91.20;;;;;;5031463;28;20052;-82
2023/05/03 09:33:06;;;;;;;4.43;1.75;;;11.90;91.50;;;;;;5031280;28;20041;-82
2023/05/03 09:35:34;;;;;;;2.45;1.60;;;12.00;91.10;;;;;;5031306;28;20052;-82
2023/05/03 09:38:00;;;;;;;3.20;1.95;;;11.90;90.10;;;;;;5049208;28;20037;-83
2023/05/03 09:40:27;;;;;;;4.03;2.03;;;11.90;90.10;;;;;;5030667;28;20044;-82
2023/05/03 09:43:07;;;;;;;2.40;2.20;;;11.90;90.20;;;;;;5032102;28;20049;-82
2023/05/03 09:45:34;;;;;;;3.80;2.05;;;11.90;88.80;;;;;;5048787;28;20053;-82
2023/05/03 09:48:02;;;;;;;3.67;1.90;;;11.90;90.40;;;;;;5049246;28;20049;-83
2023/05/03 09:50:30;;;;;;;4.57;2.17;;;11.90;90.00;;;;;;5031398;28;20090;-82
2023/05/03 09:52:59;;;;;;;3.10;2.40;;;11.70;89.80;;;;;;5049632;28;20102;-83
2023/05/03 09:55:26;;;;;;;3.85;2.20;;;11.50;89.90;;;;;;5015328;28;20076;-83
2023/05/03 09:57:54;;;;;;;3.05;2.08;;;11.20;89.80;;;;;;5049467;28;20043;-82
2023/05/03 10:00:21;;;;;;;2.42;2.13;;;11.10;90.30;;;;;;5031316;28;20048;-82
2023/05/03 10:02:53;;;;;;;3.33;2.13;;;11.20;90.80;;;;;;5049708;28;20041;-81
2023/05/03 10:05:20;;;;;;;5.70;2.53;;;11.40;90.50;;;;;;5030869;28;20399;-82
2023/05/03 10:07:49;;;;;;;2.97;2.10;;;11.70;90.50;;;;;;5031082;28;20053;-81
2023/05/03 10:10:15;;;;;;;3.95;2.45;;;11.80;86.10;;;;;;5048405;28;20454;-82
2023/05/03 10:12:43;;;;;;;2.20;2.00;;;12.00;87.00;;;;;;5030179;28;20095;-82
2023/05/03 10:15:12;;;;;;;3.00;2.00;;;12.10;85.80;;;;;;5031703;28;20522;-83
2023/05/03 10:17:39;;;;;;;2.53;2.15;;;12.20;85.60;;;;;;5048636;28;20356;-82
2023/05/03 10:20:08;;;;;;;5.07;1.95;;;12.10;85.10;;;;;;5047612;28;20095;-82
2023/05/03 10:23:09;;;;;;;4.07;2.00;;;12.10;86.70;;;;;;5049225;28;20057;-82
2023/05/03 10:25:37;;;;;;;6.13;2.20;;;12.10;84.90;;;;;;5048301;28;20410;-82
2023/05/03 10:28:07;;;;;;;2.10;1.90;;;12.30;87.70;;;;;;5048040;28;20458;-82
2023/05/03 10:30:40;;;;;;;4.20;2.00;;;12.40;87.00;;;;;;5030416;28;20455;-82
2023/05/03 10:33:08;;;;;;;2.38;1.95;;;12.20;83.70;;;;;;5011405;28;20049;-82
2023/05/03 10:35:39;;;;;;;2.58;2.38;;;12.10;85.10;;;;;;5029605;28;20140;-82
2023/05/03 10:38:15;;;;;;;4.22;2.22;;;12.20;86.00;;;;;;5011328;28;20053;-82
2023/05/03 10:40:42;;;;;;;3.75;2.20;;;12.40;81.60;;;;;;5010780;28;20492;-82
2023/05/03 10:43:30;;;;;;;4.22;2.25;;;12.40;84.90;;;;;;5010016;28;20045;-83
2023/05/03 10:46:10;;;;;;;2.92;2.28;;;12.60;79.70;;;;;;5038233;28;20140;-81
2023/05/03 10:48:36;;;;;;;4.05;2.35;;;12.70;75.80;;;;;;5047225;28;20140;-80
2023/05/03 10:51:32;;;;;;;3.78;2.10;;;12.70;82.90;;;;;;5045505;28;20073;-80
2023/05/03 10:53:58;;;;;;;3.85;2.42;;;12.70;81.60;;;;;;5046359;28;20055;-81
2023/05/03 10:56:24;;;;;;;3.95;2.10;;;12.90;83.20;;;;;;5044546;28;20040;-82
2023/05/03 10:58:50;;;;;;;4.18;2.47;;;12.90;81.40;;;;;;5012300;28;20056;-81
2023/05/03 11:01:17;;;;;;;2.80;2.30;;;13.00;81.20;;;;;;5030888;28;20076;-82
2023/05/03 11:03:54;;;;;;;2.35;2.00;;;13.20;80.40;;;;;;5048375;28;20060;-80
2023/05/03 11:06:34;;;;;;;2.35;2.03;;;13.10;76.70;;;;;;5047387;28;20056;-80
2023/05/03 11:09:02;;;;;;;2.58;2.13;;;13.20;76.00;;;;;;5028589;28;20077;-81
2023/05/03 11:11:28;;;;;;;2.47;2.28;;;13.30;78.20;;;;;;5031373;28;20103;-81
2023/05/03 11:13:56;;;;;;;3.00;2.20;;;13.30;77.10;;;;;;5047682;28;20495;-81
2023/05/03 11:16:22;;;;;;;2.95;2.33;;;13.40;76.50;;;;;;5047598;28;20060;-81
2023/05/03 11:18:48;;;;;;;2.38;1.83;;;13.50;75.20;;;;;;5029862;28;20048;-82
2023/05/03 11:21:17;;;;;;;5.53;2.20;;;13.80;75.30;;;;;;5047864;28;20044;-82
2023/05/03 11:23:44;;;;;;;4.20;1.92;;;13.90;74.70;;;;;;5047312;28;20044;-81
2023/05/03 11:26:10;;;;;;;3.30;2.30;;;14.00;73.50;;;;;;5047545;28;20044;-82
2023/05/03 11:28:42;;;;;;;3.55;2.28;;;14.00;71.40;;;;;;5046586;28;20048;-81
2023/05/03 11:31:09;;;;;;;4.22;2.30;;;14.10;69.70;;;;;;5029023;28;20068;-82
2023/05/03 11:33:39;;;;;;;3.25;2.08;;;14.10;70.20;;;;;;5045189;28;20052;-83
2023/05/03 11:36:07;;;;;;;2.65;2.20;;;14.20;70.70;;;;;;5028292;28;20093;-83
2023/05/03 11:38:33;;;;;;;3.65;2.30;;;13.90;70.80;;;;;;5028671;28;20141;-82
2023/05/03 11:41:00;;;;;;;3.03;2.20;;;14.00;72.40;;;;;;5028990;28;20053;-82
2023/05/03 11:43:26;;;;;;;4.45;2.30;;;14.00;71.60;;;;;;5046343;28;20067;-83
2023/05/03 11:45:56;;;;;;;2.60;2.38;;;14.00;71.70;;;;;;5046195;28;20711;-82
2023/05/03 11:48:22;;;;;;;3.78;2.30;;;14.00;70.40;;;;;;5029273;28;20107;-82
2023/05/03 11:50:50;;;;;;;3.75;2.25;;;13.90;70.10;;;;;;5045698;28;20045;-83
2023/05/03 11:53:17;;;;;;;2.55;2.30;;;13.80;70.40;;;;;;5045548;28;20033;-82
2023/05/03 11:55:46;;;;;;;3.25;2.10;;;13.80;72.00;;;;;;5044977;28;20081;-81
2023/05/03 11:58:17;;;;;;;6.13;2.50;;;14.00;74.00;;;;;;5048802;28;20135;-81
2023/05/03 12:00:47;;;;;;;4.60;2.13;;;14.10;71.70;;;;;;5033645;28;20257;-78
2023/05/03 12:03:24;;;;;;;3.47;2.10;;;14.20;71.50;;;;;;5051230;28;20079;-81
2023/05/03 12:05:51;;;;;;;2.30;2.10;;;14.20;64.90;;;;;;5033555;28;20053;-80
2023/05/03 12:08:18;;;;;;;3.65;2.00;;;14.00;69.40;;;;;;5032187;28;20467;-78
2023/05/03 12:10:44;;;;;;;4.55;2.17;;;13.90;70.40;;;;;;5051008;28;20056;-79
2023/05/03 12:13:10;;;;;;;5.72;2.17;;;13.90;70.40;;;;;;5050917;28;20391;-80
2023/05/03 12:15:37;;;;;;;3.78;2.22;;;14.00;69.70;;;;;;5051101;28;20049;-80
2023/05/03 12:18:08;;;;;;;3.60;2.15;;;14.00;68.30;;;;;;5033477;28;20053;-79
2023/05/03 12:20:35;;;;;;;2.45;2.22;;;14.10;69.00;;;;;;5050610;28;20037;-80
2023/05/03 12:23:10;;;;;;;4.25;2.20;;;14.00;67.60;;;;;;5049102;28;20624;-78
2023/05/03 12:25:36;;;;;;;2.55;2.35;;;14.00;67.80;;;;;;5032567;28;20146;-79
2023/05/03 12:28:04;;;;;;;4.47;2.33;;;14.40;69.10;;;;;;5016354;28;20497;-80
2023/05/03 12:30:31;;;;;;;2.97;2.10;;;14.10;68.70;;;;;;5050069;28;20086;-80
2023/05/03 12:32:57;;;;;;;3.80;2.20;;;14.30;68.40;;;;;;5042356;28;20037;-80
2023/05/03 12:35:23;;;;;;;5.60;1.95;;;14.40;68.00;;;;;;5042736;28;20087;-80
2023/05/03 12:37:49;;;;;;;3.85;2.60;;;14.40;67.10;;;;;;5050461;28;20056;-78
2023/05/03 12:40:16;;;;;;;2.67;2.10;;;14.20;66.20;;;;;;5031928;28;20132;-79
2023/05/03 12:42:42;;;;;;;3.97;2.28;;;14.20;66.00;;;;;;5048978;28;20041;-78
2023/05/03 12:45:10;;;;;;;3.97;1.88;;;14.30;67.10;;;;;;5050783;28;20033;-79
2023/05/03 12:47:36;;;;;;;2.30;2.10;;;14.40;67.30;;;;;;5049175;28;20542;-78
2023/05/03 12:50:02;;;;;;;4.18;2.28;;;14.50;66.50;;;;;;5048843;28;20424;-78
2023/05/03 12:52:30;;;;;;;4.03;2.20;;;14.40;66.20;;;;;;5049683;28;20049;-79
2023/05/03 12:54:56;;;;;;;4.45;2.50;;;14.40;65.90;;;;;;5050163;28;20059;-79